Time;durP1;ratioP1;P1;durP2;ratioP2;P2;SDS_P1;SDS_P2;PMS_P1;PMS_P2;Temp;Humidity;BMP_temperature;BMP_pressure;BME280_temperature;BME280_humidity;BME280_pressure;Samples;Min_cycle;Max_cycle;Signal;HPM_P1;HPM_P2
2022/01/14 06:00:46;;;;;;;19.43;17.47;;;2.70;97.20;;;;;;1688942;29;20711;-80
2022/01/14 06:01:37;;;;;;;18.00;16.08;;;2.70;97.20;;;;;;1689334;29;20217;-81
2022/01/14 06:02:29;;;;;;;20.03;18.00;;;2.70;97.20;;;;;;1689162;29;20205;-82
2022/01/14 06:03:19;;;;;;;18.10;16.40;;;2.70;97.20;;;;;;1689199;29;20208;-82
2022/01/14 06:04:11;;;;;;;19.47;17.27;;;2.70;97.20;;;;;;1689148;29;20211;-83
2022/01/14 06:05:02;;;;;;;20.00;17.90;;;2.70;97.20;;;;;;1690220;29;20208;-83
2022/01/14 06:05:54;;;;;;;19.83;17.77;;;2.70;97.20;;;;;;1693156;29;20235;-83
2022/01/14 06:06:45;;;;;;;19.25;17.35;;;2.70;97.20;;;;;;1695173;29;20235;-83
2022/01/14 06:07:37;;;;;;;20.53;17.37;;;2.70;97.20;;;;;;1688924;29;20204;-83
2022/01/14 06:08:27;;;;;;;18.95;17.15;;;2.80;97.20;;;;;;1689130;29;20219;-84
2022/01/14 06:09:19;;;;;;;18.60;16.80;;;2.80;97.20;;;;;;1688966;29;20284;-83
2022/01/14 06:10:11;;;;;;;18.70;16.90;;;2.80;97.20;;;;;;1689129;29;20220;-83
2022/01/14 06:11:02;;;;;;;19.33;17.27;;;2.80;97.20;;;;;;1689244;29;20243;-83
2022/01/14 06:11:53;;;;;;;19.13;17.20;;;2.80;97.20;;;;;;1689321;29;20262;-84
2022/01/14 06:12:45;;;;;;;19.50;17.50;;;2.90;97.20;;;;;;1689057;29;20201;-83
2022/01/14 06:13:36;;;;;;;19.25;17.23;;;2.90;97.20;;;;;;1695073;29;20202;-83
2022/01/14 06:14:27;;;;;;;18.47;16.57;;;2.90;97.20;;;;;;1695625;29;20206;-81
2022/01/14 06:15:18;;;;;;;20.63;18.45;;;3.00;97.20;;;;;;1693679;29;20234;-81
2022/01/14 06:16:11;;;;;;;20.50;18.37;;;3.00;97.20;;;;;;1695459;29;20219;-81
2022/01/14 06:17:02;;;;;;;19.48;17.40;;;3.10;97.20;;;;;;1695650;29;20212;-81
2022/01/14 06:17:54;;;;;;;19.42;17.55;;;3.10;97.20;;;;;;1695160;29;20218;-81
2022/01/14 06:18:45;;;;;;;19.05;17.05;;;3.10;97.20;;;;;;1695096;29;20716;-80
2022/01/14 06:19:37;;;;;;;18.80;16.98;;;3.10;97.20;;;;;;1694622;29;20231;-81
2022/01/14 06:20:28;;;;;;;18.20;16.38;;;3.10;97.20;;;;;;1688819;29;20688;-81
2022/01/14 06:21:19;;;;;;;19.73;17.70;;;3.10;97.20;;;;;;1689006;29;20205;-81
2022/01/14 06:22:10;;;;;;;19.25;17.25;;;3.10;97.20;;;;;;1688227;29;20228;-81
2022/01/14 06:23:02;;;;;;;18.63;16.73;;;3.10;97.20;;;;;;1688194;29;20205;-81
2022/01/14 06:23:53;;;;;;;18.90;16.95;;;3.10;97.20;;;;;;1688898;29;20216;-81
2022/01/14 06:24:44;;;;;;;19.43;17.40;;;3.10;97.20;;;;;;1689884;29;20200;-81
2022/01/14 06:25:35;;;;;;;17.85;15.95;;;3.10;97.20;;;;;;1690277;29;20248;-81
2022/01/14 06:26:27;;;;;;;18.47;16.57;;;3.00;97.20;;;;;;1693844;29;20196;-81
2022/01/14 06:27:18;;;;;;;18.00;16.08;;;3.00;97.20;;;;;;1693784;29;20218;-82
2022/01/14 06:28:10;;;;;;;18.00;16.20;;;3.00;97.20;;;;;;1692382;29;20211;-82
2022/01/14 06:29:02;;;;;;;17.17;15.55;;;3.00;97.20;;;;;;1692301;29;20224;-81
2022/01/14 06:29:54;;;;;;;17.70;16.00;;;2.90;97.20;;;;;;1690222;29;20200;-80
2022/01/14 06:30:44;;;;;;;18.50;16.63;;;2.90;97.20;;;;;;1694309;29;20230;-81
2022/01/14 06:31:37;;;;;;;19.10;17.30;;;2.90;97.20;;;;;;1695619;29;20235;-81
2022/01/14 06:32:28;;;;;;;18.35;16.45;;;2.90;97.20;;;;;;1691551;29;20231;-82
2022/01/14 06:33:20;;;;;;;18.53;16.63;;;2.90;97.20;;;;;;1690332;29;20207;-81
2022/01/14 06:34:11;;;;;;;20.05;17.95;;;2.90;97.20;;;;;;1691121;29;20661;-81
2022/01/14 06:35:04;;;;;;;19.75;17.75;;;2.90;97.20;;;;;;1691041;29;20201;-81
2022/01/14 06:35:54;;;;;;;19.90;17.88;;;2.90;97.20;;;;;;1690451;29;20204;-81
2022/01/14 06:36:46;;;;;;;18.70;16.80;;;2.90;97.20;;;;;;1690581;29;20692;-81
2022/01/14 06:37:37;;;;;;;20.15;18.05;;;3.00;97.20;;;;;;1691528;29;20207;-81
2022/01/14 06:38:29;;;;;;;20.50;18.45;;;3.00;97.20;;;;;;1693249;29;20200;-81
2022/01/14 06:39:20;;;;;;;18.77;16.80;;;3.00;97.20;;;;;;1694480;29;20204;-82
2022/01/14 06:40:12;;;;;;;20.23;17.60;;;3.00;97.20;;;;;;1693877;29;20212;-81
2022/01/14 06:41:03;;;;;;;19.05;17.05;;;3.00;97.20;;;;;;1691682;29;20204;-81
2022/01/14 06:41:55;;;;;;;19.27;17.40;;;3.00;97.20;;;;;;1690993;29;20200;-81
2022/01/14 06:42:46;;;;;;;20.63;18.55;;;3.00;97.20;;;;;;1695497;29;20444;-81
2022/01/14 06:43:37;;;;;;;19.27;17.47;;;3.10;97.20;;;;;;1692911;29;20205;-81
2022/01/14 06:44:28;;;;;;;19.63;17.65;;;3.10;97.20;;;;;;1688009;29;20468;-82
2022/01/14 06:45:20;;;;;;;18.77;16.97;;;3.10;97.20;;;;;;1691824;29;20199;-82
2022/01/14 06:46:11;;;;;;;19.20;17.02;;;3.10;97.20;;;;;;1694488;29;20208;-81
2022/01/14 06:47:04;;;;;;;18.97;17.03;;;3.10;97.20;;;;;;1695115;29;20263;-81
2022/01/14 06:47:55;;;;;;;18.10;16.40;;;3.10;97.20;;;;;;1695406;29;20214;-82
2022/01/14 06:48:47;;;;;;;20.50;17.37;;;3.00;97.20;;;;;;1694833;29;20234;-81
2022/01/14 06:49:37;;;;;;;17.45;15.70;;;3.00;97.20;;;;;;1695523;29;20646;-82
2022/01/14 06:50:29;;;;;;;17.83;15.93;;;2.90;97.20;;;;;;1695256;29;20611;-82
2022/01/14 06:51:20;;;;;;;18.75;16.85;;;2.80;97.20;;;;;;1695321;29;20307;-81
2022/01/14 06:52:12;;;;;;;18.30;16.50;;;2.80;97.20;;;;;;1692915;29;20196;-81
2022/01/14 06:53:03;;;;;;;16.90;15.20;;;2.70;97.20;;;;;;1688840;29;20205;-82
2022/01/14 06:53:55;;;;;;;17.75;15.88;;;2.70;97.20;;;;;;1694896;29;20666;-82
2022/01/14 06:54:47;;;;;;;19.40;17.50;;;2.70;97.20;;;;;;1695224;29;20215;-82
2022/01/14 06:55:39;;;;;;;17.23;15.48;;;2.70;97.20;;;;;;1695321;29;20218;-82
2022/01/14 06:56:30;;;;;;;17.85;16.05;;;2.70;97.20;;;;;;1695172;29;20224;-82
2022/01/14 06:57:23;;;;;;;17.33;15.73;;;2.70;97.20;;;;;;1694648;29;20671;-81
2022/01/14 06:58:14;;;;;;;18.27;15.85;;;2.70;97.20;;;;;;1694686;29;20315;-82
2022/01/14 06:59:06;;;;;;;17.80;15.90;;;2.70;97.20;;;;;;1694906;29;20222;-82
2022/01/14 06:59:56;;;;;;;17.67;15.98;;;2.70;97.20;;;;;;1695919;29;21023;-84
2022/01/14 07:00:49;;;;;;;18.57;16.80;;;2.80;97.20;;;;;;1690134;29;20670;-81
2022/01/14 07:01:40;;;;;;;18.40;16.60;;;2.80;97.20;;;;;;1688595;29;20263;-82
2022/01/14 07:02:33;;;;;;;18.40;16.50;;;2.80;97.20;;;;;;1692699;29;20200;-83
2022/01/14 07:03:24;;;;;;;19.98;17.90;;;2.90;97.20;;;;;;1694757;29;20227;-81
2022/01/14 07:04:16;;;;;;;19.33;17.30;;;2.90;97.20;;;;;;1692085;29;20242;-82
2022/01/14 07:05:08;;;;;;;18.98;17.02;;;2.90;97.20;;;;;;1690451;29;20294;-83
2022/01/14 07:06:00;;;;;;;18.17;16.50;;;3.00;97.20;;;;;;1688482;29;20227;-82
2022/01/14 07:06:51;;;;;;;18.80;17.00;;;3.00;97.20;;;;;;1688610;29;20209;-83
2022/01/14 07:07:43;;;;;;;18.55;16.65;;;3.00;97.20;;;;;;1687564;29;20204;-82
2022/01/14 07:08:34;;;;;;;18.70;16.75;;;3.00;97.20;;;;;;1689770;29;20208;-83
2022/01/14 07:09:26;;;;;;;18.53;16.73;;;3.00;97.20;;;;;;1689236;29;20703;-82
2022/01/14 07:10:17;;;;;;;18.50;16.70;;;3.00;97.20;;;;;;1693450;29;20871;-83
2022/01/14 07:11:10;;;;;;;20.33;17.80;;;3.00;97.20;;;;;;1691071;29;20668;-82
2022/01/14 07:12:02;;;;;;;19.75;17.80;;;3.00;97.20;;;;;;1691862;29;20575;-82
2022/01/14 07:12:54;;;;;;;19.85;17.75;;;3.00;97.20;;;;;;1690956;29;20253;-81
2022/01/14 07:13:45;;;;;;;20.63;18.55;;;3.00;97.20;;;;;;1689483;29;20244;-84
2022/01/14 07:14:36;;;;;;;20.20;18.00;;;3.00;97.20;;;;;;1692228;29;20204;-83
2022/01/14 07:15:27;;;;;;;19.45;17.30;;;3.00;97.20;;;;;;1693445;29;20196;-83
2022/01/14 07:16:19;;;;;;;19.37;17.40;;;3.00;97.20;;;;;;1694980;29;20200;-83
2022/01/14 07:17:10;;;;;;;18.83;16.83;;;3.00;97.20;;;;;;1695080;29;20583;-83
2022/01/14 07:18:03;;;;;;;19.97;17.90;;;3.00;97.20;;;;;;1694902;29;20275;-83
2022/01/14 07:18:53;;;;;;;20.35;18.10;;;3.00;97.20;;;;;;1695088;29;20218;-83
2022/01/14 07:19:46;;;;;;;20.37;18.17;;;3.00;97.20;;;;;;1695098;29;20211;-79
2022/01/14 07:20:37;;;;;;;20.10;18.10;;;3.00;97.20;;;;;;1688790;29;20228;-81
2022/01/14 07:21:29;;;;;;;20.73;18.52;;;3.00;97.20;;;;;;1688695;29;20690;-81
2022/01/14 07:22:20;;;;;;;19.83;17.83;;;3.00;97.20;;;;;;1688890;29;20200;-81
2022/01/14 07:23:12;;;;;;;18.77;16.88;;;3.00;97.20;;;;;;1688621;29;20235;-81
2022/01/14 07:24:03;;;;;;;19.05;17.23;;;3.00;97.20;;;;;;1688614;29;20208;-80
2022/01/14 07:24:55;;;;;;;19.00;17.13;;;3.00;97.20;;;;;;1688510;29;20205;-81
2022/01/14 07:25:46;;;;;;;20.50;18.40;;;3.00;97.20;;;;;;1688835;29;20209;-82
2022/01/14 07:26:37;;;;;;;19.53;17.43;;;3.00;97.20;;;;;;1690337;29;20195;-81
2022/01/14 07:27:28;;;;;;;18.98;17.05;;;3.10;97.20;;;;;;1691780;29;20196;-81
2022/01/14 07:28:20;;;;;;;19.73;17.63;;;3.00;97.20;;;;;;1690972;29;20206;-80
2022/01/14 07:29:11;;;;;;;19.42;17.45;;;3.00;97.20;;;;;;1691367;29;20212;-81
2022/01/14 07:30:03;;;;;;;19.67;16.30;;;3.00;97.20;;;;;;1692591;29;20208;-81
2022/01/14 07:30:54;;;;;;;19.08;17.17;;;3.00;97.20;;;;;;1691613;29;20259;-81
2022/01/14 07:31:46;;;;;;;17.50;15.80;;;3.00;97.20;;;;;;1691225;29;20200;-80
2022/01/14 07:32:37;;;;;;;18.73;16.88;;;3.00;97.20;;;;;;1692087;29;20586;-81
2022/01/14 07:33:30;;;;;;;18.43;16.53;;;3.00;97.20;;;;;;1692423;29;20201;-81
2022/01/14 07:34:20;;;;;;;18.88;17.00;;;3.00;97.20;;;;;;1690973;29;20199;-81
2022/01/14 07:35:13;;;;;;;19.93;17.90;;;3.00;97.20;;;;;;1690989;29;20204;-81
2022/01/14 07:36:04;;;;;;;20.23;18.15;;;3.00;97.20;;;;;;1688529;29;20208;-80
2022/01/14 07:36:55;;;;;;;21.83;19.08;;;3.00;97.20;;;;;;1688330;29;20232;-81
2022/01/14 07:37:46;;;;;;;21.02;18.70;;;3.00;97.20;;;;;;1688153;29;20696;-81
2022/01/14 07:38:38;;;;;;;22.20;19.63;;;3.00;97.20;;;;;;1689876;29;20208;-81
2022/01/14 07:39:29;;;;;;;23.08;20.63;;;3.00;97.20;;;;;;1691975;29;20228;-81
2022/01/14 07:40:20;;;;;;;23.43;20.40;;;2.90;97.20;;;;;;1691619;29;20207;-81
2022/01/14 07:41:11;;;;;;;21.85;19.65;;;2.90;97.20;;;;;;1691496;29;20661;-81
2022/01/14 07:42:04;;;;;;;22.50;20.20;;;2.80;97.20;;;;;;1688550;29;20664;-81
2022/01/14 07:42:54;;;;;;;24.27;21.17;;;2.80;97.20;;;;;;1688643;29;20452;-81
2022/01/14 07:43:48;;;;;;;22.47;19.90;;;2.80;97.20;;;;;;1688362;29;20215;-81
2022/01/14 07:44:39;;;;;;;19.00;17.00;;;2.70;97.20;;;;;;1688736;29;20287;-80
2022/01/14 07:45:31;;;;;;;18.63;16.67;;;2.70;97.20;;;;;;1688601;29;20224;-82
2022/01/14 07:46:22;;;;;;;17.88;16.02;;;2.70;97.20;;;;;;1688772;29;20456;-80
2022/01/14 07:47:13;;;;;;;17.73;15.87;;;2.70;97.20;;;;;;1688740;29;20197;-81
2022/01/14 07:48:04;;;;;;;17.65;15.95;;;2.70;97.20;;;;;;1688474;29;20249;-81
2022/01/14 07:48:58;;;;;;;17.00;15.30;;;2.70;97.20;;;;;;1688637;29;20205;-81
2022/01/14 07:49:50;;;;;;;18.50;16.80;;;2.70;97.20;;;;;;1688415;29;20209;-81
2022/01/14 07:50:42;;;;;;;18.42;16.58;;;2.70;97.20;;;;;;1691954;29;20219;-81
2022/01/14 07:51:33;;;;;;;17.83;15.60;;;2.70;97.20;;;;;;1695188;29;20618;-81
2022/01/14 07:52:24;;;;;;;17.40;15.70;;;2.80;97.20;;;;;;1694996;29;20216;-81
2022/01/14 07:53:15;;;;;;;18.55;16.65;;;2.80;97.20;;;;;;1695154;29;20200;-80
2022/01/14 07:54:08;;;;;;;17.77;16.00;;;2.80;97.20;;;;;;1694959;29;20206;-81
2022/01/14 07:54:59;;;;;;;18.58;16.55;;;2.90;97.20;;;;;;1695132;29;20471;-81
2022/01/14 07:55:50;;;;;;;17.83;15.93;;;2.90;97.20;;;;;;1692039;29;20244;-81
2022/01/14 07:56:45;;;;;;;16.98;15.20;;;2.90;97.20;;;;;;1695021;29;20211;-81
2022/01/14 07:57:37;;;;;;;17.08;15.38;;;3.00;97.20;;;;;;1694837;29;20580;-81
2022/01/14 07:58:28;;;;;;;17.33;15.63;;;3.00;97.20;;;;;;1695034;29;20207;-80
2022/01/14 07:59:22;;;;;;;17.50;15.70;;;3.10;97.20;;;;;;1693160;29;20204;-81
2022/01/14 08:00:14;;;;;;;17.80;16.00;;;3.10;97.20;;;;;;1691511;29;20239;-81
2022/01/14 08:01:06;;;;;;;17.52;15.77;;;3.10;97.20;;;;;;1688594;29;20612;-81
2022/01/14 08:01:58;;;;;;;18.55;16.63;;;3.10;97.20;;;;;;1688569;29;20209;-81
2022/01/14 08:02:50;;;;;;;18.85;16.95;;;3.10;97.20;;;;;;1688331;29;20549;-81
2022/01/14 08:03:41;;;;;;;20.05;17.88;;;3.10;97.20;;;;;;1688485;29;20255;-81
2022/01/14 08:04:36;;;;;;;20.90;18.77;;;3.10;97.20;;;;;;1688572;29;20205;-81
2022/01/14 08:05:27;;;;;;;20.50;18.40;;;3.10;97.20;;;;;;1688646;29;20459;-81
2022/01/14 08:06:19;;;;;;;19.77;17.77;;;3.00;97.20;;;;;;1688460;29;20208;-81
2022/01/14 08:07:10;;;;;;;20.50;17.60;;;3.00;97.20;;;;;;1691967;29;20660;-81
2022/01/14 08:08:04;;;;;;;21.98;18.58;;;3.00;97.20;;;;;;1694615;29;20208;-81
2022/01/14 08:08:55;;;;;;;21.98;19.08;;;3.00;97.20;;;;;;1694500;29;20204;-81
2022/01/14 08:09:47;;;;;;;20.30;18.30;;;3.10;97.20;;;;;;1694468;29;20207;-81
2022/01/14 08:10:38;;;;;;;19.98;17.95;;;3.10;97.20;;;;;;1694882;29;20270;-81
2022/01/14 08:11:29;;;;;;;20.35;18.35;;;3.10;97.20;;;;;;1694774;29;20211;-81
2022/01/14 08:12:20;;;;;;;22.27;18.67;;;3.10;97.20;;;;;;1694967;29;20252;-81
2022/01/14 08:13:12;;;;;;;21.33;19.03;;;3.10;97.20;;;;;;1695285;29;20203;-80
2022/01/14 08:14:03;;;;;;;20.60;18.60;;;3.10;97.20;;;;;;1695009;29;20549;-83
2022/01/14 08:14:54;;;;;;;21.20;19.00;;;3.10;97.20;;;;;;1694938;29;20296;-82
2022/01/14 08:15:45;;;;;;;19.73;17.73;;;3.10;97.20;;;;;;1694896;29;20495;-81
2022/01/14 08:16:37;;;;;;;21.70;19.60;;;3.20;97.20;;;;;;1694943;29;20210;-81
2022/01/14 08:17:29;;;;;;;21.88;19.67;;;3.20;97.20;;;;;;1688742;29;20227;-81
2022/01/14 08:18:21;;;;;;;21.10;18.92;;;3.20;97.20;;;;;;1688186;29;20295;-81
2022/01/14 08:19:12;;;;;;;19.70;17.70;;;3.30;97.20;;;;;;1688288;29;20240;-81
2022/01/14 08:20:07;;;;;;;20.07;18.07;;;3.30;97.20;;;;;;1692886;29;20204;-81
2022/01/14 08:20:59;;;;;;;21.23;19.02;;;3.40;97.20;;;;;;1701317;29;20235;-82
2022/01/14 08:21:50;;;;;;;19.67;17.70;;;3.40;97.20;;;;;;1701164;29;20223;-81
2022/01/14 08:22:41;;;;;;;20.13;18.13;;;3.50;97.20;;;;;;1701183;29;20206;-81
2022/01/14 08:23:33;;;;;;;18.77;16.77;;;3.50;97.20;;;;;;1701308;29;20202;-81
2022/01/14 08:24:23;;;;;;;17.88;16.08;;;3.50;97.20;;;;;;1700397;29;20219;-81
2022/01/14 08:25:15;;;;;;;17.27;15.40;;;3.60;97.20;;;;;;1691956;29;20193;-81
2022/01/14 08:26:08;;;;;;;18.50;16.67;;;3.60;97.20;;;;;;1688790;29;20240;-81
2022/01/14 08:26:59;;;;;;;16.63;14.65;;;3.60;97.20;;;;;;1689866;29;20591;-81
2022/01/14 08:27:51;;;;;;;16.55;14.90;;;3.60;97.20;;;;;;1691619;29;20577;-81
2022/01/14 08:28:42;;;;;;;16.60;14.90;;;3.70;97.20;;;;;;1691758;29;20209;-81
2022/01/14 08:29:33;;;;;;;17.07;15.27;;;3.70;97.20;;;;;;1690655;29;20195;-81
2022/01/14 08:30:24;;;;;;;17.85;15.93;;;3.70;97.20;;;;;;1690295;29;20453;-81
2022/01/14 08:31:17;;;;;;;18.90;15.18;;;3.70;97.20;;;;;;1694511;29;20211;-81
2022/01/14 08:32:09;;;;;;;17.65;15.82;;;3.70;97.20;;;;;;1690629;29;20204;-81
2022/01/14 08:33:00;;;;;;;17.63;15.75;;;3.80;97.20;;;;;;1694686;29;20214;-81
2022/01/14 08:33:51;;;;;;;17.33;15.60;;;3.80;97.20;;;;;;1693419;29;20210;-80
2022/01/14 08:34:42;;;;;;;20.15;17.27;;;3.90;97.20;;;;;;1689597;29;20453;-81
2022/01/14 08:35:35;;;;;;;18.10;16.20;;;3.90;97.20;;;;;;1688605;29;20188;-81
2022/01/14 08:36:28;;;;;;;19.63;15.20;;;3.90;97.20;;;;;;1687558;29;20232;-80
2022/01/14 08:37:20;;;;;;;19.52;16.55;;;4.00;97.20;;;;;;1691566;29;20219;-82
2022/01/14 08:38:10;;;;;;;20.17;17.75;;;4.00;97.20;;;;;;1693675;29;20232;-81
2022/01/14 08:39:02;;;;;;;18.87;16.87;;;4.00;97.20;;;;;;1693942;29;20206;-81
2022/01/14 08:39:53;;;;;;;18.65;16.60;;;4.10;97.20;;;;;;1694358;29;20211;-80
2022/01/14 08:40:45;;;;;;;19.13;17.00;;;4.10;97.20;;;;;;1694658;29;20306;-80
2022/01/14 08:41:35;;;;;;;19.15;16.92;;;4.10;97.20;;;;;;1694749;29;20982;-80
2022/01/14 08:42:27;;;;;;;18.37;16.47;;;4.10;97.20;;;;;;1695053;29;20664;-80
2022/01/14 08:43:18;;;;;;;19.77;16.17;;;4.10;97.20;;;;;;1694972;29;20216;-81
2022/01/14 08:44:10;;;;;;;18.73;16.83;;;4.20;97.20;;;;;;1694539;29;20207;-80
2022/01/14 08:45:01;;;;;;;17.33;15.10;;;4.20;97.20;;;;;;1694540;29;20463;-80
2022/01/14 08:45:52;;;;;;;19.83;15.73;;;4.20;97.20;;;;;;1694557;29;20203;-80
2022/01/14 08:46:43;;;;;;;18.88;14.63;;;4.20;97.20;;;;;;1693962;29;20455;-81
2022/01/14 08:47:35;;;;;;;16.50;14.27;;;4.30;97.20;;;;;;1687425;29;20512;-80
2022/01/14 08:48:26;;;;;;;15.40;13.85;;;4.30;97.20;;;;;;1687231;29;20236;-80
2022/01/14 08:49:17;;;;;;;13.80;12.40;;;4.30;97.20;;;;;;1687504;29;20204;-80
2022/01/14 08:50:08;;;;;;;12.82;11.43;;;4.40;97.20;;;;;;1687775;29;20959;-80
2022/01/14 08:51:02;;;;;;;14.03;12.63;;;4.40;97.20;;;;;;1687970;29;20700;-80
2022/01/14 08:51:53;;;;;;;13.88;12.38;;;4.50;97.20;;;;;;1687365;29;20829;-80
2022/01/14 08:52:45;;;;;;;12.47;11.27;;;4.50;97.20;;;;;;1687871;29;20601;-80
2022/01/14 08:53:36;;;;;;;12.35;11.05;;;4.60;97.20;;;;;;1687994;29;20204;-80
2022/01/14 08:54:27;;;;;;;14.30;11.83;;;4.60;97.20;;;;;;1688005;29;20199;-80
2022/01/14 08:55:20;;;;;;;13.00;11.52;;;4.70;97.20;;;;;;1688179;29;20244;-80
2022/01/14 08:56:12;;;;;;;14.60;13.20;;;4.80;97.20;;;;;;1688206;29;20196;-80
2022/01/14 08:57:03;;;;;;;13.85;12.55;;;4.90;97.20;;;;;;1689843;29;20216;-80
2022/01/14 08:57:56;;;;;;;15.82;14.13;;;5.00;97.20;;;;;;1694436;29;20247;-80
2022/01/14 08:58:46;;;;;;;17.10;14.35;;;5.00;97.20;;;;;;1694349;29;20212;-80
2022/01/14 08:59:38;;;;;;;15.77;14.17;;;5.10;97.20;;;;;;1694503;29;20279;-80
2022/01/14 09:00:30;;;;;;;15.85;14.23;;;5.10;97.20;;;;;;1694403;29;20276;-80
2022/01/14 09:01:22;;;;;;;16.05;14.55;;;5.20;97.20;;;;;;1694409;29;20212;-80
2022/01/14 09:02:13;;;;;;;16.40;14.90;;;5.30;97.20;;;;;;1694714;29;20211;-80
2022/01/14 09:03:05;;;;;;;16.92;15.13;;;5.30;97.20;;;;;;1694769;29;20212;-80
2022/01/14 09:03:57;;;;;;;16.40;14.75;;;5.40;97.20;;;;;;1694527;29;20204;-80
2022/01/14 09:04:48;;;;;;;15.60;14.00;;;5.50;97.20;;;;;;1694594;29;20592;-80
2022/01/14 09:05:39;;;;;;;15.20;13.70;;;5.60;97.20;;;;;;1694420;29;20208;-80
2022/01/14 09:06:32;;;;;;;15.30;13.88;;;5.60;97.20;;;;;;1694538;29;20207;-80
2022/01/14 09:07:23;;;;;;;16.25;14.60;;;5.70;97.20;;;;;;1693939;29;20196;-80
2022/01/14 09:08:15;;;;;;;15.32;13.93;;;5.70;97.20;;;;;;1694341;29;20294;-80
2022/01/14 09:09:06;;;;;;;15.95;14.45;;;5.80;97.20;;;;;;1694338;29;20203;-80
2022/01/14 09:09:58;;;;;;;16.33;14.52;;;5.90;97.20;;;;;;1694507;29;20655;-80
2022/01/14 09:10:49;;;;;;;18.58;16.77;;;5.90;97.20;;;;;;1694435;29;20266;-80
2022/01/14 09:11:41;;;;;;;19.33;17.33;;;6.00;97.20;;;;;;1694435;29;20219;-81
2022/01/14 09:12:32;;;;;;;20.75;17.73;;;6.00;97.20;;;;;;1694528;29;20204;-81
2022/01/14 09:13:23;;;;;;;21.17;18.83;;;6.10;97.20;;;;;;1694396;29;20207;-81
2022/01/14 09:14:14;;;;;;;25.75;20.52;;;6.20;97.20;;;;;;1695351;29;20609;-81
2022/01/14 09:15:08;;;;;;;25.63;21.07;;;6.20;97.20;;;;;;1695162;29;20566;-80
2022/01/14 09:15:59;;;;;;;23.40;19.98;;;6.30;97.20;;;;;;1694433;29;20840;-81
2022/01/14 09:16:50;;;;;;;24.48;20.50;;;6.30;97.20;;;;;;1694338;29;20203;-81
2022/01/14 09:17:42;;;;;;;21.77;19.08;;;6.40;97.20;;;;;;1694131;29;20259;-81
2022/01/14 09:18:34;;;;;;;21.45;18.92;;;6.50;97.20;;;;;;1694420;29;20200;-81
2022/01/14 09:19:24;;;;;;;22.20;19.90;;;6.50;97.20;;;;;;1694532;29;20238;-81
2022/01/14 09:20:17;;;;;;;20.10;18.00;;;6.50;97.20;;;;;;1694403;29;20306;-81
2022/01/14 09:21:07;;;;;;;21.20;18.80;;;6.60;97.20;;;;;;1695706;29;20215;-81
2022/01/14 09:22:00;;;;;;;19.47;17.37;;;6.60;97.20;;;;;;1695864;29;20218;-81
2022/01/14 09:22:56;;;;;;;18.80;16.90;;;6.60;97.20;;;;;;1695712;29;20204;-81
2022/01/14 09:23:52;;;;;;;20.08;17.95;;;6.70;97.20;;;;;;1695588;29;20231;-81
2022/01/14 09:24:45;;;;;;;19.50;17.60;;;6.70;97.20;;;;;;1695718;29;20219;-81
2022/01/14 09:25:35;;;;;;;17.92;16.13;;;6.80;97.20;;;;;;1695764;29;20204;-81
2022/01/14 09:26:27;;;;;;;15.70;14.17;;;6.80;97.20;;;;;;1695653;29;20208;-81
2022/01/14 09:27:18;;;;;;;16.92;15.18;;;6.90;97.20;;;;;;1694084;29;20200;-81
2022/01/14 09:28:09;;;;;;;16.50;14.73;;;7.00;97.20;;;;;;1695333;29;20204;-81
2022/01/14 09:29:01;;;;;;;15.55;14.05;;;7.00;97.20;;;;;;1695550;29;20208;-81
2022/01/14 09:29:54;;;;;;;14.95;13.38;;;7.10;97.20;;;;;;1695612;29;20210;-81
2022/01/14 09:30:45;;;;;;;13.82;12.55;;;7.10;97.20;;;;;;1695649;29;20228;-81
2022/01/14 09:31:37;;;;;;;15.20;13.60;;;7.10;97.20;;;;;;1695587;29;20286;-81
2022/01/14 09:32:28;;;;;;;16.27;13.60;;;7.10;97.20;;;;;;1695560;29;20214;-81
2022/01/14 09:33:20;;;;;;;15.80;14.27;;;7.10;97.20;;;;;;1695734;29;20335;-81
2022/01/14 09:34:11;;;;;;;14.85;13.45;;;7.10;97.20;;;;;;1695668;29;20962;-81
2022/01/14 09:35:07;;;;;;;15.20;13.70;;;7.10;97.20;;;;;;1695650;29;20579;-81
2022/01/14 09:35:58;;;;;;;15.25;13.65;;;7.20;97.20;;;;;;1695748;29;20503;-81
2022/01/14 09:36:50;;;;;;;15.77;14.17;;;7.20;97.20;;;;;;1695732;29;20668;-81
2022/01/14 09:37:45;;;;;;;15.18;13.57;;;7.30;97.20;;;;;;1690002;29;20726;-81
2022/01/14 09:38:36;;;;;;;16.42;14.30;;;7.40;97.20;;;;;;1689079;29;20220;-81
2022/01/14 09:39:31;;;;;;;16.07;14.40;;;7.50;97.20;;;;;;1689064;29;20205;-81
2022/01/14 09:40:21;;;;;;;17.75;15.85;;;7.50;97.20;;;;;;1688825;29;20497;-81
2022/01/14 09:41:15;;;;;;;19.00;17.20;;;7.60;97.20;;;;;;1689132;29;20208;-81
2022/01/14 09:42:07;;;;;;;20.33;18.33;;;7.70;97.20;;;;;;1689073;29;20212;-81
2022/01/14 09:43:01;;;;;;;20.83;18.65;;;7.70;97.20;;;;;;1689077;29;20208;-81
2022/01/14 09:43:52;;;;;;;23.13;19.00;;;7.80;97.20;;;;;;1689246;29;20208;-81
2022/01/14 09:44:45;;;;;;;21.05;18.95;;;7.90;97.20;;;;;;1688932;29;20211;-81
2022/01/14 09:45:36;;;;;;;24.05;20.13;;;8.00;97.20;;;;;;1689079;29;20216;-81
2022/01/14 09:46:27;;;;;;;19.70;17.80;;;8.10;97.20;;;;;;1688861;29;20205;-81
2022/01/14 09:47:20;;;;;;;20.38;18.02;;;8.20;97.20;;;;;;1691147;29;20507;-81
2022/01/14 09:48:15;;;;;;;20.35;18.17;;;8.30;97.20;;;;;;1695078;29;20204;-81
2022/01/14 09:49:06;;;;;;;21.58;17.35;;;8.40;97.20;;;;;;1695343;29;20296;-81
2022/01/14 09:49:58;;;;;;;20.55;18.38;;;8.40;97.20;;;;;;1695446;29;20210;-81
2022/01/14 09:50:49;;;;;;;19.73;17.17;;;8.50;97.20;;;;;;1695456;29;20736;-81
2022/01/14 09:51:40;;;;;;;19.93;17.83;;;8.60;97.20;;;;;;1695491;29;20212;-81
2022/01/14 09:52:31;;;;;;;19.45;17.23;;;8.70;97.20;;;;;;1694634;29;20240;-81
2022/01/14 09:53:26;;;;;;;18.00;16.10;;;8.80;97.20;;;;;;1688888;29;20231;-81
2022/01/14 09:54:17;;;;;;;21.13;15.93;;;8.80;97.20;;;;;;1689084;29;20460;-81
2022/01/14 09:55:08;;;;;;;16.75;14.95;;;8.80;97.20;;;;;;1688915;29;20710;-81
2022/01/14 09:56:02;;;;;;;17.37;14.70;;;8.80;97.20;;;;;;1688898;29;21306;-81
2022/01/14 09:56:52;;;;;;;16.42;14.82;;;8.80;97.20;;;;;;1689087;29;20495;-81
2022/01/14 09:57:44;;;;;;;16.27;14.60;;;8.90;97.20;;;;;;1688583;29;20231;-81
2022/01/14 09:58:37;;;;;;;20.52;14.40;;;9.00;97.20;;;;;;1688774;29;20623;-81
2022/01/14 09:59:29;;;;;;;17.83;14.73;;;9.00;97.20;;;;;;1688967;29;20200;-81
2022/01/14 10:00:20;;;;;;;16.00;13.88;;;9.20;97.20;;;;;;1690658;29;20208;-81
2022/01/14 10:01:15;;;;;;;15.20;13.60;;;9.30;97.20;;;;;;1695543;29;20701;-82
2022/01/14 10:02:06;;;;;;;16.58;14.00;;;9.40;97.20;;;;;;1695461;29;20270;-81
2022/01/14 10:02:57;;;;;;;16.83;12.98;;;9.50;97.20;;;;;;1695449;29;20208;-81
2022/01/14 10:03:51;;;;;;;14.35;12.75;;;9.50;97.20;;;;;;1695254;29;20246;-81
2022/01/14 10:04:43;;;;;;;15.15;13.55;;;9.50;97.20;;;;;;1695401;29;20274;-81
2022/01/14 10:05:35;;;;;;;14.32;12.82;;;9.60;97.20;;;;;;1695450;29;20578;-81
2022/01/14 10:06:39;;;;;;;13.50;12.20;;;9.70;97.20;;;;;;1695379;29;20226;-81
2022/01/14 10:07:32;;;;;;;14.45;12.80;;;9.80;97.20;;;;;;1695605;29;20212;-81
2022/01/14 10:08:27;;;;;;;15.60;14.00;;;9.90;97.20;;;;;;1695259;29;20208;-82
2022/01/14 10:09:21;;;;;;;15.93;14.30;;;10.10;97.20;;;;;;1688915;29;20296;-81
2022/01/14 10:10:22;;;;;;;15.85;14.25;;;10.20;97.20;;;;;;1688811;29;20208;-81
2022/01/14 10:11:13;;;;;;;17.45;14.82;;;10.40;97.20;;;;;;1688698;29;20206;-82
2022/01/14 10:12:07;;;;;;;18.40;15.88;;;10.60;97.20;;;;;;1688850;29;20208;-81
2022/01/14 10:13:11;;;;;;;14.95;13.45;;;10.80;97.20;;;;;;1688815;29;20716;-82
2022/01/14 10:14:12;;;;;;;16.20;14.60;;;11.00;97.20;;;;;;1688665;29;20213;-82
2022/01/14 10:15:08;;;;;;;16.55;14.25;;;11.20;97.20;;;;;;1688803;29;20257;-82
2022/01/14 10:16:02;;;;;;;16.73;15.02;;;11.40;97.20;;;;;;1688874;29;20239;-81
2022/01/14 10:16:54;;;;;;;15.60;14.20;;;11.60;97.20;;;;;;1688714;29;20219;-81
2022/01/14 10:17:47;;;;;;;16.50;14.90;;;11.80;97.20;;;;;;1688280;29;20205;-81
2022/01/14 10:18:39;;;;;;;17.13;14.70;;;11.90;97.20;;;;;;1689842;29;20205;-82
2022/01/14 10:19:33;;;;;;;17.13;15.43;;;12.00;97.20;;;;;;1694919;29;20200;-82
2022/01/14 10:20:35;;;;;;;17.73;15.82;;;12.20;97.20;;;;;;1695216;29;20207;-82
2022/01/14 10:21:32;;;;;;;16.52;14.93;;;12.30;97.20;;;;;;1695116;29;20204;-81
2022/01/14 10:22:26;;;;;;;17.08;15.07;;;12.40;97.20;;;;;;1695290;29;20613;-82
2022/01/14 10:23:17;;;;;;;16.35;14.65;;;12.50;97.20;;;;;;1695171;29;20309;-82
2022/01/14 10:24:13;;;;;;;18.60;16.58;;;12.60;97.20;;;;;;1695176;29;20260;-81
2022/01/14 10:25:07;;;;;;;18.05;14.60;;;12.80;97.20;;;;;;1695214;29;20204;-81
2022/01/14 10:25:58;;;;;;;15.60;14.02;;;13.00;97.20;;;;;;1695376;29;20219;-82
2022/01/14 10:26:51;;;;;;;16.80;15.10;;;13.10;97.20;;;;;;1695099;29;20214;-82